Clarksdale Fletcher Field Air, MS

8:56 PM CDT on March 28, 2017 (GMT -0500)
Fletcher

Weather History for KCKM - January, 2014

Change the Weather History Date:

Saturday, January 11, 2014

  Actual Average (KUOX) Record (KUOX)
Temperature  
Mean Temperature 50 °F -  
Max Temperature 59 °F 46 °F 75 °F (1963)
Min Temperature 42 °F 24 °F -5 °F (1982)
Degree Days  
Heating Degree Days 14    
Moisture  
Dew Point 43 °F    
Average Humidity 75    
Maximum Humidity 100    
Minimum Humidity 58    
Precipitation  
Precipitation 0.07 in - - ()
Sea Level Pressure  
Sea Level Pressure 29.90 in    
Wind  
Wind Speed 11 mph (West)    
Max Wind Speed 20 mph    
Max Gust Speed 26 mph    
Visibility 10 miles    
Events      
Averages and records for this station are not official NWS values.
T = Trace of Precipitation, MM = Missing Value Source: NWS Daily Summary

Daily Weather History Graph

Daily Weather History Graph

Search for Another Location

Airport or City:

Trip Planner

Search our weather history database for the weather conditions in past years. The results will help you decide how hot, cold, wet, or windy it might be!

Date:

Astronomy

Jan. 11, 2014 Rise Set
Actual Time 7:08 AM CST 5:11 PM CST
Civil Twilight 6:41 AM CST 5:39 PM CST
Nautical Twilight 6:10 AM CST 6:10 PM CST
Astronomical Twilight 5:39 AM CST 6:40 PM CST
Moon 1:54 PM CST (1/11) 3:15 AM CST (1/11)
Length of Visible Light 10h 57m
Length of Day
10h 02m
Waxing Gibbous, 83% of the Moon is Illuminated
Jan 11
Waxing Gibbous
Jan 15
Full
Jan 23
Last Quarter
Jan 30
New
Feb 6
First Quarter

Hourly Weather History & Observations

Time (CST) Temp. Windchill Dew Point Humidity Pressure Visibility Wind Dir Wind Speed Gust Speed Precip Events Conditions
12:15 AM 59.0 °F - 59.0 °F 100% 29.71 in 7.0 mi SSW 11.5 mph - 0.02 in   Overcast
12:35 AM 59.0 °F - 59.0 °F 100% 29.72 in 3.0 mi SW 15.0 mph 24.2 mph 0.06 in   Mostly Cloudy
12:55 AM 59.0 °F - 57.2 °F 94% 29.73 in 10.0 mi WSW 17.3 mph 24.2 mph 0.07 in   Overcast
1:15 AM 57.2 °F - 55.4 °F 94% 29.72 in 10.0 mi WSW 13.8 mph - N/A   Overcast
1:35 AM 57.2 °F - 55.4 °F 94% 29.72 in 10.0 mi WSW 9.2 mph - N/A   Overcast
1:55 AM 57.2 °F - 53.6 °F 88% 29.73 in 10.0 mi WSW 11.5 mph - N/A   Overcast
2:15 AM 55.4 °F - 53.6 °F 94% 29.74 in 10.0 mi West 11.5 mph - N/A   Overcast
2:35 AM 55.4 °F - 53.6 °F 94% 29.75 in 10.0 mi West 10.4 mph - N/A   Overcast
2:55 AM 55.4 °F - 53.6 °F 94% 29.77 in 10.0 mi West 11.5 mph - N/A   Overcast
3:15 AM 55.4 °F - 53.6 °F 94% 29.77 in 10.0 mi West 10.4 mph - N/A   Mostly Cloudy
3:35 AM 53.6 °F - 50.0 °F 88% 29.77 in 10.0 mi West 8.1 mph - N/A   Mostly Cloudy
3:55 AM 53.6 °F - 48.2 °F 82% 29.78 in 10.0 mi West 10.4 mph - N/A   Overcast
4:15 AM 53.6 °F - 48.2 °F 82% 29.79 in 10.0 mi West 9.2 mph - N/A   Mostly Cloudy
4:35 AM 51.8 °F - 46.4 °F 82% 29.79 in 10.0 mi West 10.4 mph - N/A   Clear
4:55 AM 50.0 °F - 46.4 °F 87% 29.79 in 10.0 mi West 8.1 mph - N/A   Clear
5:15 AM 48.2 °F - 46.4 °F 93% 29.80 in 10.0 mi WSW 5.8 mph - N/A   Clear
5:35 AM 48.2 °F - 44.6 °F 87% 29.81 in 10.0 mi WSW 5.8 mph - N/A   Clear
5:55 AM 48.2 °F - 44.6 °F 87% 29.81 in 10.0 mi SW 3.5 mph - N/A   Clear
6:15 AM 46.4 °F 42.9 °F 44.6 °F 93% 29.81 in 10.0 mi SW 6.9 mph - N/A   Clear
6:35 AM 46.4 °F 42.9 °F 42.8 °F 87% 29.82 in 10.0 mi SW 6.9 mph - N/A   Clear
6:55 AM 46.4 °F 42.4 °F 41.0 °F 81% 29.83 in 10.0 mi SW 8.1 mph - N/A   Clear
7:15 AM 46.4 °F 42.9 °F 42.8 °F 87% 29.83 in 10.0 mi WSW 6.9 mph - N/A   Clear
7:35 AM 46.4 °F 42.9 °F 41.0 °F 81% 29.84 in 10.0 mi WSW 6.9 mph - N/A   Clear
7:55 AM 46.4 °F 42.9 °F 41.0 °F 81% 29.85 in 10.0 mi West 6.9 mph - N/A   Clear
8:15 AM 48.2 °F - 41.0 °F 76% 29.86 in 10.0 mi West 12.7 mph 16.1 mph N/A   Clear
8:35 AM 50.0 °F - 39.2 °F 66% 29.87 in 10.0 mi West 15.0 mph - N/A   Clear
8:55 AM 50.0 °F - 39.2 °F 66% 29.88 in 10.0 mi West 15.0 mph - N/A   Clear
9:15 AM 50.0 °F - 39.2 °F 66% 29.89 in 10.0 mi West 13.8 mph - N/A   Clear
9:35 AM 50.0 °F - 39.2 °F 66% 29.89 in 10.0 mi West 19.6 mph 26.5 mph N/A   Clear
9:55 AM 50.0 °F - 39.2 °F 66% 29.90 in 10.0 mi West 19.6 mph - N/A   Clear
10:15 AM 50.0 °F - 39.2 °F 66% 29.91 in 10.0 mi West 17.3 mph - N/A   Clear
10:35 AM 50.0 °F - 39.2 °F 66% 29.91 in 10.0 mi WNW 17.3 mph 21.9 mph N/A   Clear
10:55 AM 50.0 °F - 39.2 °F 66% 29.91 in 10.0 mi West 17.3 mph - N/A   Clear
11:15 AM 50.0 °F - 39.2 °F 66% 29.91 in 10.0 mi WNW 16.1 mph - N/A   Clear
11:35 AM 51.8 °F - 41.0 °F 67% 29.91 in 10.0 mi West 13.8 mph - N/A   Clear
11:55 AM 51.8 °F - 41.0 °F 67% 29.91 in 10.0 mi West 13.8 mph - N/A   Clear
12:15 PM 51.8 °F - 41.0 °F 67% 29.91 in 10.0 mi West 12.7 mph 19.6 mph N/A   Clear
12:35 PM 53.6 °F - 41.0 °F 62% 29.90 in 10.0 mi West 13.8 mph - N/A   Clear
12:55 PM 53.6 °F - 42.8 °F 67% 29.90 in 10.0 mi West 13.8 mph - N/A   Clear
1:15 PM 53.6 °F - 41.0 °F 62% 29.91 in 10.0 mi West 12.7 mph - N/A   Clear
1:35 PM 53.6 °F - 42.8 °F 67% 29.91 in 10.0 mi WSW 15.0 mph - N/A   Clear
1:55 PM 53.6 °F - 41.0 °F 62% 29.92 in 10.0 mi WSW 17.3 mph - N/A   Clear
2:15 PM 53.6 °F - 42.8 °F 67% 29.92 in 10.0 mi West 15.0 mph 19.6 mph N/A   Clear
2:35 PM 53.6 °F - 42.8 °F 67% 29.92 in 10.0 mi WSW 13.8 mph - N/A   Clear
2:55 PM 53.6 °F - 42.8 °F 67% 29.92 in 10.0 mi West 15.0 mph 19.6 mph N/A   Clear
3:15 PM 55.4 °F - 42.8 °F 63% 29.93 in 10.0 mi West 18.4 mph - N/A   Clear
3:35 PM 55.4 °F - 41.0 °F 58% 29.94 in 10.0 mi West 13.8 mph 20.7 mph N/A   Clear
3:55 PM 55.4 °F - 41.0 °F 58% 29.94 in 10.0 mi West 13.8 mph - N/A   Clear
4:15 PM 55.4 °F - 41.0 °F 58% 29.95 in 10.0 mi West 11.5 mph - N/A   Clear
4:35 PM 53.6 °F - 41.0 °F 62% 29.95 in 10.0 mi West 10.4 mph - N/A   Clear
4:55 PM 53.6 °F - 41.0 °F 62% 29.96 in 10.0 mi West 9.2 mph - N/A   Clear
5:15 PM 51.8 °F - 41.0 °F 67% 29.96 in 10.0 mi Calm Calm - N/A   Clear
5:35 PM 50.0 °F - 41.0 °F 71% 29.97 in 10.0 mi Calm Calm - N/A   Clear
5:55 PM 48.2 °F - 41.0 °F 76% 29.97 in 10.0 mi Calm Calm - N/A   Clear
6:15 PM 48.2 °F - 41.0 °F 76% 29.98 in 10.0 mi Calm Calm - N/A   Clear
6:35 PM 48.2 °F - 39.2 °F 71% 29.99 in 10.0 mi Calm Calm - N/A   Clear
6:55 PM 48.2 °F - 39.2 °F 71% 29.99 in 10.0 mi Calm Calm - N/A   Clear
7:15 PM 46.4 °F - 39.2 °F 76% 30.00 in 10.0 mi Calm Calm - N/A   Clear
7:35 PM 46.4 °F - 39.2 °F 76% 30.01 in 10.0 mi Calm Calm - N/A   Clear
7:55 PM 46.4 °F - 37.4 °F 71% 30.02 in 10.0 mi Calm Calm - N/A   Clear
8:15 PM 44.6 °F - 39.2 °F 81% 30.02 in 10.0 mi Calm Calm - N/A   Clear
8:35 PM 42.8 °F - 39.2 °F 87% 30.03 in 10.0 mi Calm Calm - N/A   Clear
8:55 PM 44.6 °F - 37.4 °F 76% 30.03 in 10.0 mi Calm Calm - N/A   Clear
9:15 PM 44.6 °F 40.2 °F 37.4 °F 76% 30.04 in 10.0 mi West 8.1 mph - N/A   Clear
9:35 PM 46.4 °F 41.9 °F 37.4 °F 71% 30.05 in 10.0 mi West 9.2 mph - N/A   Clear
9:55 PM 46.4 °F 41.9 °F 37.4 °F 71% 30.05 in 10.0 mi West 9.2 mph - N/A   Clear
10:15 PM 46.4 °F 42.4 °F 35.6 °F 66% 30.05 in 10.0 mi West 8.1 mph - N/A   Clear
10:35 PM 44.6 °F 40.2 °F 35.6 °F 71% 30.05 in 10.0 mi West 8.1 mph - N/A   Clear
10:55 PM 44.6 °F 40.7 °F 35.6 °F 71% 30.06 in 10.0 mi West 6.9 mph - N/A   Clear
11:15 PM 44.6 °F 40.2 °F 35.6 °F 71% 30.06 in 10.0 mi West 8.1 mph - N/A   Clear
11:35 PM 44.6 °F - 35.6 °F 71% 30.06 in 10.0 mi Calm Calm - N/A   Clear
11:55 PM 42.8 °F - 33.8 °F 70% 30.05 in 10.0 mi Calm Calm - N/A   Clear